Time;durP1;ratioP1;P1;durP2;ratioP2;P2;SDS_P1;SDS_P2;PMS_P1;PMS_P2;Temp;Humidity;BMP_temperature;BMP_pressure;BME280_temperature;BME280_humidity;BME280_pressure;Samples;Min_cycle;Max_cycle;Signal;HPM_P1;HPM_P2
2023/01/05 00:00:05;;;;;;;24.27;5.05;;;10.60;99.90;;;;;;4927024;29;20504;-81
2023/01/05 00:02:30;;;;;;;28.63;4.65;;;10.60;99.90;;;;;;4931439;28;20118;-84
2023/01/05 00:04:56;;;;;;;19.10;2.83;;;10.60;99.90;;;;;;4926938;29;20035;-85
2023/01/05 00:07:21;;;;;;;15.50;3.50;;;10.60;99.90;;;;;;4928161;29;20027;-82
2023/01/05 00:09:47;;;;;;;13.55;2.55;;;10.60;99.90;;;;;;4925221;29;20074;-85
2023/01/05 00:23:03;;;;;;;23.42;3.28;;;10.70;99.90;;;;;;4922451;29;20035;-85
2023/01/05 00:25:30;;;;;;;19.08;3.38;;;10.60;99.90;;;;;;4923516;29;20038;-83
2023/01/05 00:27:57;;;;;;;24.40;4.00;;;10.60;99.90;;;;;;4922431;29;20042;-84
2023/01/05 00:30:28;;;;;;;17.45;3.15;;;10.70;99.90;;;;;;4929128;29;20042;-84
2023/01/05 00:32:53;;;;;;;21.52;4.13;;;10.60;99.90;;;;;;4924260;29;20039;-86
2023/01/05 00:35:20;;;;;;;24.27;4.53;;;10.60;99.90;;;;;;4927359;29;20454;-84
2023/01/05 00:37:46;;;;;;;24.25;2.90;;;10.70;99.90;;;;;;4923832;29;20028;-84
2023/01/05 00:40:14;;;;;;;25.75;3.75;;;10.70;99.90;;;;;;4930648;29;20028;-85
2023/01/05 00:42:40;;;;;;;17.45;4.22;;;10.70;99.90;;;;;;4927769;29;20031;-82
2023/01/05 00:45:08;;;;;;;23.90;3.67;;;10.60;99.90;;;;;;4929253;29;20392;-84
2023/01/05 00:47:34;;;;;;;20.23;3.85;;;10.50;99.90;;;;;;4925168;29;20400;-83
2023/01/05 00:49:59;;;;;;;25.13;4.88;;;10.50;99.90;;;;;;4928852;29;20028;-83
2023/01/05 00:52:25;;;;;;;22.50;4.18;;;10.40;99.90;;;;;;4926336;29;20372;-84
2023/01/05 00:54:50;;;;;;;16.55;3.72;;;10.40;99.90;;;;;;4932298;29;20024;-85
2023/01/05 00:57:16;;;;;;;30.23;4.15;;;10.30;99.90;;;;;;4928492;29;20034;-85
2023/01/05 00:59:42;;;;;;;20.85;3.53;;;10.30;99.90;;;;;;4928978;29;20330;-85
2023/01/05 01:02:08;;;;;;;21.90;3.75;;;10.30;99.90;;;;;;4927631;29;20115;-83
2023/01/05 01:04:35;;;;;;;26.20;4.55;;;10.30;99.90;;;;;;4918103;29;20051;-82
2023/01/05 01:07:02;;;;;;;18.70;4.38;;;10.30;99.90;;;;;;4924595;29;20032;-82
2023/01/05 01:09:28;;;;;;;18.77;4.00;;;10.30;99.90;;;;;;4924919;29;20020;-85
2023/01/05 01:11:53;;;;;;;30.50;4.90;;;10.20;99.90;;;;;;4930248;29;21030;-82
2023/01/05 01:14:20;;;;;;;32.55;4.22;;;10.20;99.90;;;;;;4928895;29;20024;-85
2023/01/05 01:16:45;;;;;;;20.70;3.20;;;10.20;99.90;;;;;;4922994;29;20028;-86
2023/01/05 01:19:16;;;;;;;17.15;4.00;;;10.10;99.90;;;;;;4930927;29;20023;-85
2023/01/05 01:21:42;;;;;;;20.45;4.57;;;10.10;99.90;;;;;;4929178;29;20032;-88
2023/01/05 01:24:26;;;;;;;16.92;3.85;;;10.20;99.90;;;;;;4923857;29;20036;-82
2023/01/05 01:26:52;;;;;;;22.42;5.18;;;10.20;99.90;;;;;;4924246;28;20421;-83
2023/01/05 01:29:20;;;;;;;29.35;4.80;;;10.20;99.90;;;;;;4928211;29;20082;-82
2023/01/05 01:31:48;;;;;;;25.50;4.47;;;10.10;99.90;;;;;;4926239;29;20050;-85
2023/01/05 01:34:14;;;;;;;29.33;5.70;;;10.10;99.90;;;;;;4924538;29;20024;-84
2023/01/05 01:36:40;;;;;;;26.88;6.18;;;10.10;99.90;;;;;;4927951;29;20039;-82
2023/01/05 01:39:05;;;;;;;17.15;3.55;;;10.00;99.90;;;;;;4929968;29;20122;-84
2023/01/05 01:41:31;;;;;;;24.27;4.53;;;9.90;99.90;;;;;;4927849;29;20176;-84
2023/01/05 01:43:57;;;;;;;17.73;4.15;;;10.00;99.90;;;;;;4922904;29;20059;-85
2023/01/05 01:46:24;;;;;;;13.90;3.67;;;10.00;99.90;;;;;;4926534;29;20048;-82
2023/01/05 01:49:07;;;;;;;26.38;5.13;;;9.90;99.90;;;;;;4929969;29;20074;-84
2023/01/05 01:51:40;;;;;;;23.33;3.72;;;9.90;99.90;;;;;;4926479;29;20040;-83
2023/01/05 01:54:10;;;;;;;17.02;2.83;;;9.90;99.90;;;;;;4926654;29;20465;-86
2023/01/05 01:56:46;;;;;;;15.30;3.20;;;9.90;99.90;;;;;;4922326;29;20377;-84
2023/01/05 01:59:12;;;;;;;14.05;2.40;;;9.80;99.90;;;;;;4925957;29;20034;-83
2023/01/05 02:01:39;;;;;;;14.32;2.40;;;9.80;99.90;;;;;;4927794;29;20024;-83
2023/01/05 02:04:06;;;;;;;11.73;2.42;;;9.80;99.90;;;;;;4923030;29;20024;-83
2023/01/05 02:06:33;;;;;;;10.98;2.45;;;9.70;99.90;;;;;;4919432;29;20043;-88
2023/01/05 02:08:59;;;;;;;8.73;2.33;;;9.80;99.90;;;;;;4928542;29;20510;-85
2023/01/05 02:11:33;;;;;;;9.20;2.33;;;9.80;99.90;;;;;;4926214;29;20128;-83
2023/01/05 02:14:19;;;;;;;19.63;2.45;;;9.80;99.90;;;;;;4927759;29;20032;-83
2023/01/05 02:16:50;;;;;;;26.35;3.95;;;9.80;99.90;;;;;;4925915;29;21128;-83
2023/01/05 02:19:53;;;;;;;8.70;1.80;;;9.80;99.90;;;;;;4928605;29;20241;-85
2023/01/05 02:22:25;;;;;;;12.60;2.88;;;9.80;99.90;;;;;;4928550;29;20039;-88
2023/01/05 02:25:13;;;;;;;15.65;2.83;;;9.80;99.90;;;;;;4926077;29;20055;-84
2023/01/05 02:27:47;;;;;;;21.88;2.80;;;9.80;99.90;;;;;;4923728;29;20115;-83
2023/01/05 02:30:38;;;;;;;14.88;3.00;;;9.90;99.90;;;;;;4927351;29;20078;-86
2023/01/05 02:33:09;;;;;;;13.20;2.65;;;9.90;99.90;;;;;;4916813;29;20031;-87
2023/01/05 02:35:49;;;;;;;24.80;3.63;;;10.00;99.90;;;;;;4926595;29;20035;-86
2023/01/05 02:38:43;;;;;;;17.90;2.80;;;10.00;99.90;;;;;;4923916;29;20043;-84
2023/01/05 02:41:24;;;;;;;14.02;3.08;;;10.00;99.90;;;;;;4924880;29;20290;-82
2023/01/05 02:43:50;;;;;;;14.73;2.53;;;10.00;99.90;;;;;;4926595;29;20464;-84
2023/01/05 02:46:15;;;;;;;14.45;2.92;;;9.90;99.90;;;;;;4926054;29;20042;-83
2023/01/05 02:48:42;;;;;;;14.82;3.17;;;10.00;99.90;;;;;;4929581;29;20207;-83
2023/01/05 02:51:14;;;;;;;16.27;4.65;;;9.90;99.90;;;;;;4918804;29;20031;-84
2023/01/05 02:53:45;;;;;;;13.32;3.25;;;10.00;99.90;;;;;;4919848;29;20377;-84
2023/01/05 02:56:24;;;;;;;11.80;2.42;;;10.00;99.90;;;;;;4918665;29;20102;-87
2023/01/05 02:59:04;;;;;;;21.88;3.60;;;10.10;99.90;;;;;;4924175;29;20028;-84
2023/01/05 03:01:40;;;;;;;14.27;2.60;;;10.10;99.90;;;;;;4925969;29;20054;-85
2023/01/05 03:04:17;;;;;;;10.32;3.38;;;10.10;99.90;;;;;;4926097;29;20110;-83
2023/01/05 03:06:55;;;;;;;15.48;3.38;;;10.10;99.90;;;;;;4920519;29;20282;-83
2023/01/05 03:09:24;;;;;;;14.50;2.72;;;10.10;99.90;;;;;;4916776;29;20036;-83
2023/01/05 03:14:45;;;;;;;10.27;2.05;;;10.00;99.90;;;;;;4921600;29;20039;-82
2023/01/05 03:17:14;;;;;;;12.65;2.33;;;10.00;99.90;;;;;;4926274;29;20043;-83
2023/01/05 03:19:42;;;;;;;9.38;1.80;;;9.90;99.90;;;;;;4923221;29;20020;-83
2023/01/05 03:36:41;;;;;;;10.77;2.22;;;9.90;99.90;;;;;;4924679;29;20122;-84
2023/01/05 03:39:09;;;;;;;17.15;3.03;;;9.90;99.90;;;;;;4927424;29;20032;-86
2023/01/05 03:41:35;;;;;;;18.95;2.50;;;9.90;99.90;;;;;;4926016;29;20106;-85
2023/01/05 03:44:01;;;;;;;18.45;2.80;;;9.90;99.90;;;;;;4923071;29;20055;-85
2023/01/05 03:46:27;;;;;;;15.15;2.47;;;9.90;99.90;;;;;;4927354;29;20107;-83
2023/01/05 03:48:52;;;;;;;15.43;3.00;;;9.90;99.90;;;;;;4918701;29;20504;-84
2023/01/05 03:51:18;;;;;;;9.70;2.58;;;9.90;99.90;;;;;;4941103;28;20122;-85
2023/01/05 03:53:44;;;;;;;16.98;2.53;;;9.90;99.90;;;;;;4930439;29;20138;-85
2023/01/05 03:56:10;;;;;;;16.00;3.08;;;9.90;99.90;;;;;;4924113;29;20488;-86
2023/01/05 03:58:36;;;;;;;17.67;3.30;;;9.90;99.90;;;;;;4924864;28;20035;-83
2023/01/05 04:01:01;;;;;;;18.60;2.65;;;9.90;99.90;;;;;;4917490;28;20040;-88
2023/01/05 04:03:27;;;;;;;14.68;3.72;;;9.90;99.90;;;;;;4921437;29;20034;-84
2023/01/05 04:05:52;;;;;;;18.33;3.50;;;10.00;99.90;;;;;;4919259;29;20269;-84
2023/01/05 04:08:18;;;;;;;9.88;2.75;;;10.00;99.90;;;;;;4922711;29;20373;-85
2023/01/05 04:10:43;;;;;;;21.33;3.72;;;10.00;99.90;;;;;;4922823;29;20016;-83
2023/01/05 04:13:09;;;;;;;13.30;2.20;;;10.00;99.90;;;;;;4925100;29;20044;-85
2023/01/05 04:15:35;;;;;;;14.15;2.65;;;10.00;99.90;;;;;;4918682;29;20115;-84
2023/01/05 04:18:00;;;;;;;12.95;2.30;;;10.00;99.90;;;;;;4919959;29;20074;-85
2023/01/05 04:20:26;;;;;;;17.48;2.97;;;10.00;99.90;;;;;;4925723;29;20127;-86
2023/01/05 04:22:51;;;;;;;20.25;3.30;;;10.00;99.90;;;;;;4923150;29;20020;-84
2023/01/05 04:25:17;;;;;;;13.57;3.28;;;10.00;99.90;;;;;;4915642;29;20043;-87
2023/01/05 04:27:42;;;;;;;22.63;3.58;;;10.00;99.90;;;;;;4921338;29;20082;-84
2023/01/05 04:30:09;;;;;;;28.48;4.45;;;10.00;99.90;;;;;;4923034;29;20034;-86
2023/01/05 04:32:35;;;;;;;23.23;4.35;;;10.00;99.90;;;;;;4920412;29;20421;-84
2023/01/05 04:35:00;;;;;;;22.33;3.38;;;10.00;99.90;;;;;;4921736;29;20165;-83
2023/01/05 04:37:26;;;;;;;20.27;4.10;;;9.90;99.90;;;;;;4926107;29;20027;-86
2023/01/05 04:39:51;;;;;;;23.98;4.15;;;9.90;99.90;;;;;;4921071;29;20028;-85
2023/01/05 04:42:17;;;;;;;22.35;3.25;;;9.90;99.90;;;;;;4922239;29;20066;-84
2023/01/05 04:44:43;;;;;;;24.58;3.55;;;9.90;99.90;;;;;;4921116;29;20031;-84
2023/01/05 04:47:09;;;;;;;21.92;4.25;;;9.80;99.90;;;;;;4927101;29;20024;-83
2023/01/05 04:49:35;;;;;;;19.08;3.63;;;9.80;99.90;;;;;;4931143;29;20031;-86
2023/01/05 04:52:00;;;;;;;18.38;3.13;;;9.80;99.90;;;;;;4922872;29;20036;-83
2023/01/05 04:54:26;;;;;;;15.35;2.90;;;9.70;99.90;;;;;;4928316;29;20031;-87
2023/01/05 04:56:51;;;;;;;15.90;3.13;;;9.80;99.90;;;;;;4929872;29;20036;-84
2023/01/05 04:59:17;;;;;;;16.48;3.08;;;9.80;99.90;;;;;;4930248;29;20040;-85
2023/01/05 05:01:43;;;;;;;17.42;3.33;;;9.70;99.90;;;;;;4930514;29;20449;-85
2023/01/05 05:04:09;;;;;;;19.35;4.43;;;9.70;99.90;;;;;;4918672;29;20482;-82
2023/01/05 05:06:35;;;;;;;10.75;2.95;;;9.70;99.90;;;;;;4928212;29;20153;-86
2023/01/05 05:09:00;;;;;;;17.70;3.33;;;9.70;99.90;;;;;;4928105;29;20059;-82
2023/01/05 05:11:26;;;;;;;10.27;2.22;;;9.70;99.90;;;;;;4925346;29;20118;-84
2023/01/05 05:13:51;;;;;;;10.10;2.53;;;9.70;99.90;;;;;;4928553;29;20405;-85
2023/01/05 05:16:17;;;;;;;10.88;2.60;;;9.80;99.90;;;;;;4922812;29;20020;-85
2023/01/05 05:18:42;;;;;;;21.92;4.50;;;9.70;99.90;;;;;;4924316;29;20468;-85
2023/01/05 05:21:09;;;;;;;10.45;2.22;;;9.70;99.90;;;;;;4927884;29;20055;-84
2023/01/05 05:23:34;;;;;;;9.63;2.70;;;9.60;99.90;;;;;;4930757;29;20028;-84
2023/01/05 05:26:00;;;;;;;12.48;2.20;;;9.60;99.90;;;;;;4926720;29;20038;-84
2023/01/05 05:28:27;;;;;;;12.55;2.28;;;9.60;99.90;;;;;;4931736;29;20062;-86
2023/01/05 05:30:55;;;;;;;16.38;3.13;;;9.60;99.90;;;;;;4924645;29;20044;-84
2023/01/05 05:33:21;;;;;;;14.13;2.50;;;9.60;99.90;;;;;;4926588;29;20052;-88
2023/01/05 05:35:46;;;;;;;11.80;2.08;;;9.60;99.90;;;;;;4927762;29;20465;-84
2023/01/05 05:38:12;;;;;;;18.35;4.60;;;9.50;99.90;;;;;;4932591;29;20110;-83
2023/01/05 05:40:39;;;;;;;17.35;3.40;;;9.50;99.90;;;;;;4927669;29;20023;-85
2023/01/05 05:43:05;;;;;;;11.73;2.30;;;9.50;99.90;;;;;;4924044;29;20035;-86
2023/01/05 05:45:30;;;;;;;11.57;2.35;;;9.40;99.90;;;;;;4919289;29;20421;-87
2023/01/05 05:47:56;;;;;;;10.20;2.42;;;9.40;99.90;;;;;;4923383;29;20066;-85
2023/01/05 05:50:22;;;;;;;20.55;3.13;;;9.40;99.90;;;;;;4920536;29;20026;-84
2023/01/05 05:52:51;;;;;;;10.52;2.47;;;9.40;99.90;;;;;;4930014;29;20421;-84
2023/01/05 05:55:16;;;;;;;15.25;3.05;;;9.50;99.90;;;;;;4924943;29;20024;-86
2023/01/05 05:57:42;;;;;;;10.68;2.95;;;9.50;99.90;;;;;;4923348;29;20028;-88
2023/01/05 06:00:08;;;;;;;11.55;2.15;;;9.40;99.90;;;;;;4924958;29;20502;-83
2023/01/05 06:02:34;;;;;;;20.75;4.00;;;9.40;99.90;;;;;;4926737;29;20118;-82
2023/01/05 06:05:00;;;;;;;13.55;2.10;;;9.40;99.90;;;;;;4924634;29;20098;-86
2023/01/05 06:07:25;;;;;;;14.23;2.78;;;9.50;99.90;;;;;;4926545;29;20023;-84
2023/01/05 06:09:51;;;;;;;11.10;2.60;;;9.50;99.90;;;;;;4923796;29;20047;-85
2023/01/05 06:12:16;;;;;;;9.40;1.83;;;9.50;99.90;;;;;;4919863;29;20040;-85
2023/01/05 06:14:42;;;;;;;12.73;2.58;;;9.50;99.90;;;;;;4925759;29;20365;-86
2023/01/05 06:17:07;;;;;;;11.73;1.88;;;9.60;99.90;;;;;;4919736;29;20027;-84
2023/01/05 06:19:33;;;;;;;11.23;2.17;;;9.60;99.90;;;;;;4915882;29;20023;-84
2023/01/05 06:21:58;;;;;;;8.90;1.95;;;9.60;99.90;;;;;;4926559;29;20028;-85
2023/01/05 06:24:24;;;;;;;8.75;1.92;;;9.60;99.90;;;;;;4922277;29;20032;-80
2023/01/05 06:26:50;;;;;;;17.65;3.50;;;9.60;99.90;;;;;;4917865;29;20029;-88
2023/01/05 06:29:15;;;;;;;12.73;2.00;;;9.60;99.90;;;;;;4926685;29;20461;-86
2023/01/05 06:31:41;;;;;;;7.78;2.10;;;9.70;99.90;;;;;;4922898;29;20078;-84
2023/01/05 06:34:06;;;;;;;11.32;2.70;;;9.80;99.90;;;;;;4932154;29;20102;-83
2023/01/05 06:36:32;;;;;;;9.18;2.10;;;9.80;99.90;;;;;;4928195;29;20034;-85
2023/01/05 06:38:57;;;;;;;13.25;2.08;;;9.70;99.90;;;;;;4927371;29;20041;-84
2023/01/05 06:41:23;;;;;;;11.73;2.10;;;9.80;99.90;;;;;;4925043;29;20024;-84
2023/01/05 06:43:49;;;;;;;10.65;1.83;;;9.80;99.90;;;;;;4930654;29;20039;-87
2023/01/05 06:46:14;;;;;;;5.60;1.35;;;9.70;99.90;;;;;;4921685;29;20028;-83
2023/01/05 06:48:40;;;;;;;12.13;2.03;;;9.80;99.90;;;;;;4922568;29;20062;-83
2023/01/05 06:51:05;;;;;;;9.30;2.03;;;9.80;99.90;;;;;;4920400;29;20027;-84
2023/01/05 06:53:31;;;;;;;10.52;2.35;;;9.80;99.90;;;;;;4921510;29;20051;-85
2023/01/05 06:55:57;;;;;;;5.32;1.60;;;9.80;99.90;;;;;;4928044;29;20062;-85
2023/01/05 06:58:22;;;;;;;6.93;1.55;;;9.80;99.90;;;;;;4929086;29;20042;-85
2023/01/05 07:00:48;;;;;;;6.43;1.85;;;9.80;99.90;;;;;;4928827;29;20024;-83
2023/01/05 07:03:13;;;;;;;4.32;1.42;;;9.80;99.90;;;;;;4930614;29;20118;-85
2023/01/05 07:05:40;;;;;;;6.95;1.55;;;9.70;99.90;;;;;;4926615;29;20028;-85
2023/01/05 07:08:06;;;;;;;4.47;1.45;;;9.70;99.90;;;;;;4924319;29;20029;-83
2023/01/05 07:10:31;;;;;;;5.93;1.45;;;9.70;99.90;;;;;;4929020;29;20042;-86
2023/01/05 07:12:57;;;;;;;6.15;1.45;;;9.70;99.90;;;;;;4928973;29;20094;-86
2023/01/05 07:15:22;;;;;;;11.80;2.60;;;9.70;99.90;;;;;;4923049;29;20039;-82
2023/01/05 07:17:48;;;;;;;7.95;1.63;;;9.70;99.90;;;;;;4923719;29;20385;-84
2023/01/05 07:20:14;;;;;;;10.02;2.40;;;9.70;99.90;;;;;;4926368;29;20035;-85
2023/01/05 07:22:39;;;;;;;7.50;2.72;;;9.70;99.90;;;;;;4927125;29;20060;-84
2023/01/05 07:25:05;;;;;;;12.43;2.58;;;9.70;99.90;;;;;;4924120;29;20467;-86
2023/01/05 07:27:31;;;;;;;10.95;2.00;;;9.80;99.90;;;;;;4929900;29;20171;-85
2023/01/05 07:29:56;;;;;;;4.93;1.40;;;9.80;99.90;;;;;;4928577;29;20035;-83
2023/01/05 07:32:22;;;;;;;8.20;1.77;;;9.80;99.90;;;;;;4925514;29;20054;-84
2023/01/05 07:34:47;;;;;;;15.13;2.53;;;9.80;99.90;;;;;;4933258;29;20076;-85
2023/01/05 07:37:13;;;;;;;5.15;1.90;;;9.80;99.90;;;;;;4928518;29;20034;-86
2023/01/05 07:39:39;;;;;;;9.07;1.90;;;9.80;99.90;;;;;;4924517;29;20354;-84
2023/01/05 07:42:04;;;;;;;7.65;2.00;;;9.80;99.90;;;;;;4923845;29;20024;-85
2023/01/05 07:44:30;;;;;;;8.57;2.22;;;9.80;99.90;;;;;;4927449;29;20034;-85
2023/01/05 07:46:55;;;;;;;10.98;2.13;;;9.90;99.90;;;;;;4926451;29;20031;-84
2023/01/05 07:49:21;;;;;;;8.45;2.22;;;9.90;99.90;;;;;;4931546;28;20048;-85
2023/01/05 07:51:47;;;;;;;10.15;2.72;;;9.90;99.90;;;;;;4931120;28;20381;-84
2023/01/05 07:54:12;;;;;;;9.50;2.10;;;10.00;99.90;;;;;;4921215;29;20039;-85
2023/01/05 07:56:38;;;;;;;8.70;1.88;;;10.00;99.90;;;;;;4928936;29;20036;-83
2023/01/05 07:59:03;;;;;;;8.18;1.75;;;10.00;99.90;;;;;;4930057;29;20024;-86
2023/01/05 08:01:29;;;;;;;11.80;1.80;;;10.00;99.90;;;;;;4927001;29;20748;-86
2023/01/05 08:03:55;;;;;;;7.45;1.63;;;10.00;99.90;;;;;;4920864;29;20079;-82
2023/01/05 08:06:20;;;;;;;16.33;4.30;;;10.00;99.90;;;;;;4925415;29;20032;-83
2023/01/05 08:08:46;;;;;;;9.25;1.60;;;10.00;99.90;;;;;;4925041;29;20119;-86
2023/01/05 08:11:14;;;;;;;8.13;1.90;;;10.00;99.90;;;;;;4925321;29;20118;-85
2023/01/05 08:13:59;;;;;;;11.10;3.83;;;10.00;99.90;;;;;;4919162;29;20071;-83
2023/01/05 08:16:26;;;;;;;10.05;1.73;;;10.00;99.90;;;;;;4927597;29;20055;-84
2023/01/05 08:18:52;;;;;;;4.60;1.33;;;10.00;99.90;;;;;;4921211;29;20055;-86
2023/01/05 08:21:18;;;;;;;4.50;1.40;;;10.00;99.90;;;;;;4931755;29;20469;-86
2023/01/05 08:23:46;;;;;;;17.85;3.67;;;10.10;99.90;;;;;;4930301;29;20031;-88
2023/01/05 08:26:15;;;;;;;7.35;3.25;;;10.10;99.90;;;;;;4925801;29;20083;-84
2023/01/05 08:28:41;;;;;;;11.60;1.65;;;10.10;99.90;;;;;;4921414;29;20425;-87
2023/01/05 08:31:28;;;;;;;9.40;3.25;;;10.10;99.90;;;;;;4924333;29;20049;-85
2023/01/05 08:33:56;;;;;;;6.47;2.10;;;10.20;99.90;;;;;;4920558;29;20158;-87
2023/01/05 08:36:22;;;;;;;10.52;4.18;;;10.20;99.90;;;;;;4931336;29;20087;-86
2023/01/05 08:38:51;;;;;;;8.50;3.45;;;10.20;99.90;;;;;;4925981;29;20038;-85
2023/01/05 08:41:25;;;;;;;6.57;2.28;;;10.20;99.90;;;;;;4931520;29;20036;-85
2023/01/05 08:43:55;;;;;;;6.15;1.70;;;10.20;99.90;;;;;;4926770;29;20475;-86
2023/01/05 08:46:23;;;;;;;7.82;2.70;;;10.20;99.90;;;;;;4919770;29;20028;-85
2023/01/05 08:48:50;;;;;;;7.00;1.42;;;10.20;99.90;;;;;;4927700;29;20414;-87
2023/01/05 08:51:16;;;;;;;6.82;1.48;;;10.30;99.90;;;;;;4921197;29;20040;-86
2023/01/05 08:53:41;;;;;;;11.23;1.80;;;10.30;99.90;;;;;;4920273;29;20091;-85
2023/01/05 08:56:08;;;;;;;7.88;2.53;;;10.30;99.90;;;;;;4924642;29;20032;-87
2023/01/05 08:58:38;;;;;;;7.93;2.35;;;10.40;99.90;;;;;;4922249;29;20476;-85
2023/01/05 09:01:16;;;;;;;6.53;2.10;;;10.40;99.90;;;;;;4927961;29;20174;-83
2023/01/05 09:03:42;;;;;;;6.47;1.80;;;10.40;99.90;;;;;;4931637;29;20059;-86
2023/01/05 09:06:10;;;;;;;9.43;2.13;;;10.40;99.90;;;;;;4931702;29;20028;-87
2023/01/05 09:08:38;;;;;;;7.45;1.60;;;10.40;99.90;;;;;;4932236;29;20040;-85
2023/01/05 09:11:21;;;;;;;11.23;1.52;;;10.50;99.90;;;;;;4931960;29;20032;-86
2023/01/05 09:13:52;;;;;;;9.75;1.60;;;10.50;99.90;;;;;;4923383;29;20043;-87
2023/01/05 09:16:20;;;;;;;10.30;1.98;;;10.50;99.90;;;;;;4919231;29;20160;-86
2023/01/05 09:18:46;;;;;;;13.25;1.88;;;10.50;99.90;;;;;;4922448;29;20497;-86
2023/01/05 09:21:12;;;;;;;10.68;2.00;;;10.50;99.90;;;;;;4925826;29;20040;-84
2023/01/05 09:23:38;;;;;;;5.53;1.60;;;10.40;99.90;;;;;;4931924;29;20053;-85
2023/01/05 09:26:06;;;;;;;8.75;2.40;;;10.40;99.90;;;;;;4927627;29;20035;-82
2023/01/05 09:28:35;;;;;;;14.90;1.70;;;10.30;99.90;;;;;;4923142;29;20043;-83
2023/01/05 09:31:06;;;;;;;6.88;1.58;;;10.20;99.90;;;;;;4927248;29;20035;-83
2023/01/05 09:33:32;;;;;;;6.72;1.42;;;10.20;99.90;;;;;;4919961;29;20055;-85
2023/01/05 09:35:58;;;;;;;4.35;1.30;;;10.30;99.90;;;;;;4928363;29;20050;-84
2023/01/05 09:38:23;;;;;;;6.65;1.88;;;10.30;99.90;;;;;;4924635;29;20270;-84
2023/01/05 09:40:51;;;;;;;9.02;2.25;;;10.40;99.90;;;;;;4920143;29;20083;-86
2023/01/05 09:43:27;;;;;;;6.32;1.45;;;10.40;99.90;;;;;;4916413;29;20085;-88
2023/01/05 09:45:54;;;;;;;10.70;1.92;;;10.40;99.90;;;;;;4926248;29;20028;-85
2023/01/05 09:48:20;;;;;;;5.35;1.45;;;10.30;99.90;;;;;;4926956;29;20044;-84
2023/01/05 09:50:48;;;;;;;7.70;1.92;;;10.30;99.90;;;;;;4925897;29;20028;-86
2023/01/05 09:53:16;;;;;;;6.20;1.70;;;10.30;99.90;;;;;;4920232;29;20131;-87
2023/01/05 09:55:43;;;;;;;7.82;1.60;;;10.40;99.90;;;;;;4924519;29;20043;-86
2023/01/05 09:58:33;;;;;;;11.55;2.45;;;10.40;99.90;;;;;;4931975;28;20032;-85
2023/01/05 10:01:04;;;;;;;1.67;0.93;;;10.50;99.90;;;;;;4927509;29;20044;-83
2023/01/05 10:03:31;;;;;;;2.70;1.15;;;10.50;99.90;;;;;;4915836;29;20042;-85
2023/01/05 10:05:58;;;;;;;3.30;1.35;;;10.60;99.90;;;;;;4924332;29;20028;-87
2023/01/05 10:08:39;;;;;;;4.32;1.00;;;10.60;99.90;;;;;;4920724;29;20067;-86
2023/01/05 10:14:18;;;;;;;5.22;1.48;;;10.60;99.90;;;;;;4931244;29;20055;-85
2023/01/05 10:16:45;;;;;;;5.15;1.63;;;10.60;99.90;;;;;;4922547;29;20062;-86
2023/01/05 10:19:15;;;;;;;3.83;1.02;;;10.60;99.90;;;;;;4919489;29;20104;-85
2023/01/05 10:21:52;;;;;;;5.35;1.73;;;10.60;99.90;;;;;;4926564;29;20122;-85
2023/01/05 10:24:54;;;;;;;4.13;0.85;;;10.50;99.90;;;;;;4927856;29;20441;-88
2023/01/05 10:27:37;;;;;;;4.70;1.00;;;10.40;99.90;;;;;;4930962;29;20054;-84
2023/01/05 10:30:16;;;;;;;7.43;1.20;;;10.40;99.90;;;;;;4924571;28;20031;-84
2023/01/05 10:32:42;;;;;;;3.38;1.15;;;10.40;99.90;;;;;;4920175;29;20432;-85
2023/01/05 10:35:32;;;;;;;7.85;2.35;;;10.40;99.90;;;;;;4926528;29;20114;-85
2023/01/05 10:38:21;;;;;;;4.82;1.30;;;10.40;99.90;;;;;;4928785;29;20038;-82
2023/01/05 10:41:05;;;;;;;4.38;0.95;;;10.40;99.90;;;;;;4928126;29;20441;-85
2023/01/05 10:43:51;;;;;;;6.22;1.50;;;10.40;99.90;;;;;;4922428;29;20032;-83
2023/01/05 10:46:17;;;;;;;15.55;1.10;;;10.30;99.90;;;;;;4925127;29;20088;-85
2023/01/05 10:48:43;;;;;;;4.38;0.88;;;10.30;99.90;;;;;;4921434;29;20134;-86
2023/01/05 10:51:09;;;;;;;5.22;0.90;;;10.30;99.90;;;;;;4926244;29;20046;-86
2023/01/05 10:53:37;;;;;;;3.38;0.98;;;10.20;99.90;;;;;;4926342;29;20036;-87
2023/01/05 10:56:05;;;;;;;6.22;0.82;;;10.20;99.90;;;;;;4925448;29;20338;-84
2023/01/05 10:58:37;;;;;;;2.40;0.90;;;10.20;99.90;;;;;;4920054;29;20032;-84
2023/01/05 11:01:15;;;;;;;2.00;0.75;;;10.20;99.90;;;;;;4923453;29;20032;-86
2023/01/05 11:03:45;;;;;;;2.63;1.08;;;10.30;99.90;;;;;;4924989;29;20393;-87
2023/01/05 11:06:22;;;;;;;1.95;0.95;;;10.30;99.90;;;;;;4924266;29;20485;-88
2023/01/05 11:08:50;;;;;;;4.95;1.40;;;10.40;99.90;;;;;;4919763;29;20111;-84
2023/01/05 11:11:22;;;;;;;7.93;1.08;;;10.40;99.90;;;;;;4921249;29;20023;-83
2023/01/05 11:13:52;;;;;;;11.23;1.30;;;10.50;99.90;;;;;;4921572;29;20400;-84
2023/01/05 11:16:21;;;;;;;5.70;1.15;;;10.50;99.90;;;;;;4926196;29;20029;-85
2023/01/05 11:19:00;;;;;;;4.45;1.40;;;10.50;99.90;;;;;;4923262;29;20028;-87
2023/01/05 11:21:35;;;;;;;3.45;0.90;;;10.50;99.90;;;;;;4923839;29;20043;-86
2023/01/05 11:24:02;;;;;;;5.95;1.77;;;10.50;99.90;;;;;;4923472;29;20032;-84
2023/01/05 11:26:36;;;;;;;6.07;1.73;;;10.50;99.90;;;;;;4919206;29;20032;-85
2023/01/05 11:29:08;;;;;;;3.85;1.27;;;10.50;99.90;;;;;;4920452;29;20032;-88
2023/01/05 11:31:41;;;;;;;5.80;1.55;;;10.50;99.90;;;;;;4925594;29;20020;-85
2023/01/05 11:34:22;;;;;;;7.50;1.17;;;10.50;99.90;;;;;;4921975;29;20122;-86
2023/01/05 11:36:56;;;;;;;3.80;1.48;;;10.50;99.90;;;;;;4926789;29;21287;-85
2023/01/05 11:39:28;;;;;;;6.03;1.40;;;10.40;99.90;;;;;;4922836;29;20035;-87
2023/01/05 11:42:29;;;;;;;5.85;1.25;;;10.30;99.90;;;;;;4926829;29;20499;-83
2023/01/05 11:44:58;;;;;;;6.43;1.48;;;10.20;99.90;;;;;;4923043;29;20397;-82
2023/01/05 11:47:38;;;;;;;3.65;1.33;;;10.20;99.90;;;;;;4926496;29;20154;-88
2023/01/05 11:50:18;;;;;;;7.28;1.10;;;10.10;99.90;;;;;;4929439;29;20032;-84
2023/01/05 11:52:49;;;;;;;6.35;1.33;;;10.10;99.90;;;;;;4922615;29;20060;-88
2023/01/05 11:55:38;;;;;;;8.65;1.60;;;10.10;99.90;;;;;;4924986;29;20070;-85
2023/01/05 11:58:16;;;;;;;6.53;1.40;;;10.20;99.90;;;;;;4928114;29;20031;-85
2023/01/05 12:01:10;;;;;;;4.90;1.35;;;10.10;99.90;;;;;;4930620;29;20481;-85
2023/01/05 12:03:52;;;;;;;12.10;4.80;;;10.10;99.90;;;;;;4922046;29;20059;-86
2023/01/05 12:06:32;;;;;;;10.93;3.47;;;10.00;99.90;;;;;;4927515;29;20039;-87
2023/01/05 12:09:10;;;;;;;18.27;6.43;;;10.00;99.90;;;;;;4928776;29;20031;-83
2023/01/05 12:12:04;;;;;;;23.13;8.68;;;10.00;99.90;;;;;;4924530;29;20032;-85
2023/01/05 12:14:32;;;;;;;7.43;1.85;;;10.00;99.90;;;;;;4927600;29;20039;-85
2023/01/05 12:17:10;;;;;;;13.85;5.22;;;10.00;99.90;;;;;;4931833;29;20068;-88
2023/01/05 12:19:51;;;;;;;10.90;3.85;;;10.10;99.90;;;;;;4920424;29;20126;-85
2023/01/05 12:22:25;;;;;;;10.40;3.70;;;10.20;99.90;;;;;;4925032;29;20047;-85
2023/01/05 12:25:12;;;;;;;6.03;2.10;;;10.20;99.90;;;;;;4925958;29;20400;-87
2023/01/05 12:28:08;;;;;;;7.25;2.83;;;10.30;99.90;;;;;;4926637;29;20028;-83
2023/01/05 12:31:02;;;;;;;4.67;1.30;;;10.30;99.90;;;;;;4928532;29;20032;-82
2023/01/05 12:34:03;;;;;;;8.10;1.33;;;10.30;99.90;;;;;;4927898;29;20050;-84
2023/01/05 12:36:32;;;;;;;5.03;1.10;;;10.30;99.90;;;;;;4926874;29;20055;-86
2023/01/05 12:39:16;;;;;;;4.68;1.42;;;10.40;99.90;;;;;;4923307;29;20389;-84
2023/01/05 12:41:50;;;;;;;4.90;1.20;;;10.40;99.90;;;;;;4927478;29;20035;-86
2023/01/05 12:44:26;;;;;;;5.00;1.65;;;10.40;99.90;;;;;;4925546;29;20040;-87
2023/01/05 12:47:04;;;;;;;4.90;1.17;;;10.40;99.90;;;;;;4940123;28;20412;-88
2023/01/05 12:49:39;;;;;;;5.13;1.10;;;10.30;99.90;;;;;;4923083;29;20059;-85
2023/01/05 12:52:18;;;;;;;10.33;2.30;;;10.20;99.90;;;;;;4929402;29;20040;-84
2023/01/05 12:54:51;;;;;;;11.93;2.55;;;10.30;99.90;;;;;;4919181;29;20397;-89
2023/01/05 12:57:25;;;;;;;3.17;1.38;;;10.30;99.90;;;;;;4923405;29;20036;-87
2023/01/05 13:00:04;;;;;;;7.60;1.25;;;10.30;99.90;;;;;;4930142;29;20031;-85
2023/01/05 13:02:39;;;;;;;6.38;1.30;;;10.20;99.90;;;;;;4929423;29;20059;-86
2023/01/05 13:05:31;;;;;;;4.60;1.73;;;10.20;99.90;;;;;;4926690;29;20066;-84
2023/01/05 13:08:44;;;;;;;4.35;1.23;;;10.20;99.90;;;;;;4931430;29;20272;-83
2023/01/05 13:11:23;;;;;;;3.33;1.30;;;10.10;99.90;;;;;;4912088;29;20040;-84
2023/01/05 13:14:14;;;;;;;11.00;1.70;;;10.00;99.90;;;;;;4920353;29;20048;-84
2023/01/05 13:16:44;;;;;;;5.82;1.60;;;10.00;99.90;;;;;;4920312;29;20024;-84
2023/01/05 13:19:19;;;;;;;8.45;1.92;;;9.90;99.90;;;;;;4918079;29;20031;-83
2023/01/05 13:21:46;;;;;;;8.48;1.65;;;9.90;99.90;;;;;;4923943;29;20043;-83
2023/01/05 13:24:25;;;;;;;7.32;1.98;;;9.90;99.90;;;;;;4928308;29;20040;-84
2023/01/05 13:26:51;;;;;;;5.60;1.85;;;9.90;99.90;;;;;;4929799;29;20036;-83
2023/01/05 13:29:23;;;;;;;4.82;1.45;;;9.90;99.90;;;;;;4928957;29;20024;-83
2023/01/05 13:32:04;;;;;;;6.82;1.38;;;9.90;99.90;;;;;;4928463;29;20032;-88